Time;durP1;ratioP1;P1;durP2;ratioP2;P2;SDS_P1;SDS_P2;PMS_P1;PMS_P2;Temp;Humidity;BMP_temperature;BMP_pressure;BME280_temperature;BME280_humidity;BME280_pressure;Samples;Min_cycle;Max_cycle;Signal;HPM_P1;HPM_P2
2021/01/02 00:01:16;;;;;;;49.40;27.88;;;;;;;4.10;79.94;100282.41;4976603;28;20031;-63
2021/01/02 00:03:48;;;;;;;45.40;27.02;;;;;;;4.09;80.08;100288.34;4976471;28;20363;-63
2021/01/02 00:06:42;;;;;;;53.25;29.45;;;;;;;4.06;80.03;100294.63;4976422;28;20045;-62
2021/01/02 00:09:13;;;;;;;52.58;26.48;;;;;;;4.04;79.95;100293.00;4976609;28;20031;-63
2021/01/02 00:12:00;;;;;;;52.27;28.73;;;;;;;4.04;80.11;100292.19;4976289;28;20109;-63
2021/01/02 00:14:54;;;;;;;56.72;29.95;;;;;;;4.02;80.47;100306.47;4976555;28;20451;-63
2021/01/02 00:17:33;;;;;;;52.63;27.80;;;;;;;3.99;80.17;100295.28;4976457;28;20486;-63
2021/01/02 00:20:04;;;;;;;50.78;28.40;;;;;;;3.98;80.40;100304.78;4976094;28;20482;-63
2021/01/02 00:22:39;;;;;;;56.85;31.20;;;;;;;3.97;80.20;100303.97;4975453;28;20410;-63
2021/01/02 00:25:11;;;;;;;56.85;31.35;;;;;;;3.96;80.64;100302.34;4976501;28;20030;-62
2021/01/02 00:27:44;;;;;;;67.45;33.80;;;;;;;3.92;80.55;100311.78;4976518;28;20014;-63
2021/01/02 00:30:16;;;;;;;70.22;33.38;;;;;;;3.92;80.71;100307.03;4976232;28;20039;-63
2021/01/02 00:33:02;;;;;;;63.72;32.28;;;;;;;3.90;80.62;100314.94;4975062;28;20029;-63
2021/01/02 00:35:28;;;;;;;59.15;32.97;;;;;;;3.86;80.38;100313.22;4975892;28;20300;-63
2021/01/02 00:38:04;;;;;;;56.53;30.45;;;;;;;3.83;80.13;100309.16;4976372;28;20034;-63
2021/01/02 00:40:31;;;;;;;52.80;30.77;;;;;;;3.78;80.51;100317.78;4978940;28;20039;-63
2021/01/02 00:42:57;;;;;;;55.35;30.23;;;;;;;3.78;80.28;100328.09;4980325;28;20029;-63
2021/01/02 00:45:27;;;;;;;51.58;28.60;;;;;;;3.75;80.64;100324.06;4979817;28;20023;-63
2021/01/02 00:47:53;;;;;;;51.90;29.45;;;;;;;3.75;81.08;100332.41;4979381;28;20035;-63
2021/01/02 00:50:21;;;;;;;51.17;30.27;;;;;;;3.83;81.35;100339.75;4979584;28;20054;-63
2021/01/02 00:53:05;;;;;;;52.35;29.80;;;;;;;3.88;80.86;100333.94;4979408;28;20015;-63
2021/01/02 00:55:39;;;;;;;49.83;26.95;;;;;;;3.89;80.59;100335.56;4979703;28;20105;-63
2021/01/02 00:58:11;;;;;;;50.47;28.23;;;;;;;3.86;80.74;100341.03;4979524;28;20041;-63
2021/01/02 01:00:38;;;;;;;60.28;30.40;;;;;;;3.84;81.11;100340.59;4979577;28;20072;-64
2021/01/02 01:03:05;;;;;;;66.20;31.85;;;;;;;3.82;81.16;100340.91;4979285;28;20069;-63
2021/01/02 01:05:46;;;;;;;59.58;30.17;;;;;;;3.80;80.78;100336.88;4979522;28;20037;-59
2021/01/02 01:08:15;;;;;;;55.67;29.02;;;;;;;3.78;80.73;100340.03;4979342;28;20030;-59
2021/01/02 01:10:40;;;;;;;56.53;27.27;;;;;;;3.80;80.85;100337.69;4979318;28;20385;-63
2021/01/02 01:13:17;;;;;;;51.47;26.77;;;;;;;3.81;80.81;100346.84;4979439;28;20023;-63
2021/01/02 01:15:42;;;;;;;53.20;26.30;;;;;;;3.88;80.75;100347.84;4979356;28;20022;-63
2021/01/02 01:18:16;;;;;;;48.42;25.02;;;;;;;3.88;80.38;100333.94;4979057;28;20370;-60
2021/01/02 01:21:02;;;;;;;47.10;23.88;;;;;;;3.90;80.59;100341.94;4978975;28;20115;-63
2021/01/02 01:23:30;;;;;;;48.58;24.60;;;;;;;3.90;80.15;100347.50;4978689;28;20101;-63
2021/01/02 01:26:27;;;;;;;44.40;24.10;;;;;;;3.90;80.19;100350.28;4979254;28;20165;-63
2021/01/02 01:28:57;;;;;;;50.72;24.70;;;;;;;3.91;80.06;100347.13;4978801;28;20030;-63
2021/01/02 01:31:23;;;;;;;46.30;23.50;;;;;;;3.88;79.98;100350.63;4979051;28;20422;-63
2021/01/02 01:33:50;;;;;;;43.10;22.40;;;;;;;3.82;80.08;100340.91;4978725;28;20041;-63
2021/01/02 01:36:20;;;;;;;41.45;20.27;;;;;;;3.83;79.76;100330.59;4978936;28;20033;-63
2021/01/02 01:38:48;;;;;;;33.97;19.77;;;;;;;3.88;79.92;100333.94;4978714;28;20055;-62
2021/01/02 01:41:15;;;;;;;38.40;20.40;;;;;;;3.87;79.81;100346.25;4978870;28;20045;-62
2021/01/02 01:43:49;;;;;;;34.20;20.05;;;;;;;3.86;79.92;100346.59;4978728;28;20158;-62
2021/01/02 01:46:17;;;;;;;37.75;19.27;;;;;;;3.83;79.87;100342.53;4978640;28;20088;-64
2021/01/02 01:49:08;;;;;;;30.85;18.08;;;;;;;3.86;80.25;100355.75;4978650;28;20031;-62
2021/01/02 01:52:03;;;;;;;33.10;17.67;;;;;;;3.98;79.18;100343.72;4977868;28;20059;-63
2021/01/02 01:54:53;;;;;;;34.20;18.65;;;;;;;3.93;79.35;100342.00;4978553;28;20426;-62
2021/01/02 01:57:28;;;;;;;40.83;19.90;;;;;;;3.87;79.58;100348.22;4978903;28;20044;-63
2021/01/02 01:59:56;;;;;;;35.83;17.88;;;;;;;3.90;79.68;100348.28;4978443;28;20052;-62
2021/01/02 02:02:52;;;;;;;30.65;17.73;;;;;;;4.00;79.09;100353.31;4978258;28;20436;-62
2021/01/02 02:05:21;;;;;;;29.58;16.88;;;;;;;4.07;78.18;100344.31;4978134;28;20474;-62
2021/01/02 02:07:57;;;;;;;30.60;16.33;;;;;;;4.08;78.57;100348.72;4978336;28;20027;-62
2021/01/02 02:10:43;;;;;;;30.30;16.50;;;;;;;4.02;78.45;100348.19;4978297;28;20031;-63
2021/01/02 02:13:18;;;;;;;34.88;17.00;;;;;;;3.99;78.57;100351.69;4978365;28;20030;-62
2021/01/02 02:15:57;;;;;;;27.55;17.05;;;;;;;3.93;78.41;100349.56;4976983;28;20125;-63
2021/01/02 02:18:29;;;;;;;29.48;16.17;;;;;;;3.96;78.28;100352.41;4978168;28;20034;-63
2021/01/02 02:20:57;;;;;;;29.50;15.82;;;;;;;3.93;78.16;100355.91;4978020;28;20027;-62
2021/01/02 02:23:41;;;;;;;28.80;16.20;;;;;;;3.91;78.36;100354.66;4978297;28;20030;-63
2021/01/02 02:26:18;;;;;;;29.33;16.48;;;;;;;3.82;78.41;100352.03;4978096;28;20023;-60
2021/01/02 02:28:50;;;;;;;28.17;16.10;;;;;;;3.78;78.71;100345.59;4977990;28;20031;-59
2021/01/02 02:31:16;;;;;;;27.42;15.82;;;;;;;3.72;78.54;100342.28;4977569;28;20026;-59
2021/01/02 02:33:54;;;;;;;29.42;17.38;;;;;;;3.70;79.43;100360.47;4977152;28;20030;-57
2021/01/02 02:36:20;;;;;;;31.02;17.40;;;;;;;3.72;79.01;100350.63;4978179;28;20355;-63
2021/01/02 02:38:46;;;;;;;25.05;15.38;;;;;;;3.76;78.88;100345.13;4977529;28;20720;-63
2021/01/02 02:41:14;;;;;;;35.38;17.15;;;;;;;3.79;79.00;100344.41;4978002;28;20031;-63
2021/01/02 02:43:42;;;;;;;29.17;16.83;;;;;;;3.74;77.99;100344.69;4977706;28;20026;-63
2021/01/02 02:46:15;;;;;;;30.52;15.85;;;;;;;3.67;78.27;100347.28;4977364;28;20038;-62
2021/01/02 02:48:44;;;;;;;26.77;16.45;;;;;;;3.70;78.67;100339.03;4977393;28;20101;-62
2021/01/02 02:51:13;;;;;;;29.15;15.65;;;;;;;3.70;78.49;100338.25;4977161;28;20080;-63
2021/01/02 02:53:39;;;;;;;26.58;14.23;;;;;;;3.66;78.29;100331.78;4977544;28;20036;-62
2021/01/02 02:56:04;;;;;;;24.70;13.93;;;;;;;3.57;78.20;100325.59;4977362;28;20044;-63
2021/01/02 02:58:30;;;;;;;25.73;14.20;;;;;;;3.56;78.29;100332.28;4977272;28;20023;-63
2021/01/02 03:00:56;;;;;;;20.70;13.38;;;;;;;3.64;78.56;100328.56;4977340;28;20022;-63
2021/01/02 03:03:21;;;;;;;21.58;13.27;;;;;;;3.64;77.95;100331.34;4976451;28;20051;-63
2021/01/02 03:05:48;;;;;;;25.00;13.30;;;;;;;3.66;78.10;100327.03;4977220;28;20022;-63
2021/01/02 03:08:15;;;;;;;21.45;13.43;;;;;;;3.63;77.94;100324.16;4977193;28;20034;-62
2021/01/02 03:10:44;;;;;;;23.73;13.30;;;;;;;3.61;77.98;100323.72;4977170;28;20027;-63
2021/01/02 03:13:09;;;;;;;20.05;12.80;;;;;;;3.54;77.88;100323.50;4977087;28;20031;-59
2021/01/02 03:15:39;;;;;;;24.10;13.25;;;;;;;3.48;78.18;100314.63;4977012;28;20019;-63
2021/01/02 03:18:05;;;;;;;25.23;12.90;;;;;;;3.41;77.92;100309.69;4977103;28;20031;-63
2021/01/02 03:20:31;;;;;;;23.60;13.20;;;;;;;3.39;78.35;100308.44;4976902;28;20027;-60
2021/01/02 03:22:56;;;;;;;21.67;12.30;;;;;;;3.38;78.13;100312.38;4977079;28;20402;-63
2021/01/02 03:25:21;;;;;;;20.70;11.65;;;;;;;3.36;77.64;100315.53;4976869;28;20117;-63
2021/01/02 03:27:51;;;;;;;19.92;11.27;;;;;;;3.38;78.51;100318.75;4976794;28;20015;-62
2021/01/02 03:30:17;;;;;;;21.88;11.93;;;;;;;3.38;78.30;100315.97;4977256;28;20042;-63
2021/01/02 03:32:43;;;;;;;17.75;11.05;;;;;;;3.38;78.42;100320.72;4990200;28;20318;-62
2021/01/02 03:35:11;;;;;;;21.25;12.52;;;;;;;3.47;78.12;100320.56;4976924;28;20108;-63
2021/01/02 03:37:38;;;;;;;18.45;11.23;;;;;;;3.57;77.33;100318.06;4976357;28;20146;-62
2021/01/02 03:40:08;;;;;;;21.70;12.55;;;;;;;3.60;77.83;100322.91;4975143;28;20473;-63
2021/01/02 03:42:38;;;;;;;19.60;10.63;;;;;;;3.61;76.80;100326.50;4975530;28;20136;-63
2021/01/02 03:45:05;;;;;;;18.25;11.55;;;;;;;3.57;77.29;100322.81;4976990;28;20695;-62
2021/01/02 03:47:30;;;;;;;17.50;10.88;;;;;;;3.55;76.97;100319.56;4976509;28;20031;-62
2021/01/02 03:49:56;;;;;;;17.27;11.10;;;;;;;3.51;77.12;100313.09;4976204;28;20048;-62
2021/01/02 03:52:21;;;;;;;20.38;10.93;;;;;;;3.46;77.15;100325.31;4975777;28;20031;-62
2021/01/02 03:54:46;;;;;;;16.60;10.18;;;;;;;3.40;76.88;100321.19;4976189;28;20022;-62
2021/01/02 03:57:12;;;;;;;22.40;11.52;;;;;;;3.33;77.29;100321.00;4976595;28;20027;-63
2021/01/02 03:59:37;;;;;;;15.98;9.73;;;;;;;3.35;77.52;100319.47;4976636;28;20023;-62
2021/01/02 04:02:02;;;;;;;20.48;10.85;;;;;;;3.28;77.26;100319.25;4976499;28;20037;-62
2021/01/02 04:04:27;;;;;;;17.38;10.90;;;;;;;3.21;77.74;100321.84;4976445;28;20035;-63
2021/01/02 04:06:53;;;;;;;17.35;10.10;;;;;;;3.14;77.89;100318.06;4976447;28;20027;-63
2021/01/02 04:09:21;;;;;;;17.13;9.88;;;;;;;3.05;78.49;100319.03;4976594;28;20118;-62
2021/01/02 04:11:47;;;;;;;16.50;9.25;;;;;;;3.04;78.87;100316.63;4976036;28;20122;-62
2021/01/02 04:14:13;;;;;;;19.00;9.70;;;;;;;3.04;78.85;100319.41;4978972;28;20027;-63
2021/01/02 04:16:40;;;;;;;17.85;9.82;;;;;;;3.06;78.44;100317.06;4980410;28;20069;-63
2021/01/02 04:19:06;;;;;;;18.25;11.65;;;;;;;3.05;78.45;100324.59;4980011;28;20030;-60
2021/01/02 04:21:32;;;;;;;21.73;10.88;;;;;;;3.10;78.71;100316.00;4980427;28;20042;-62
2021/01/02 04:23:58;;;;;;;18.50;10.25;;;;;;;3.07;78.28;100319.50;4980071;28;20045;-63
2021/01/02 04:26:24;;;;;;;15.82;9.68;;;;;;;3.03;78.30;100321.38;4980065;28;20027;-62
2021/01/02 04:28:51;;;;;;;16.73;9.88;;;;;;;3.01;78.81;100328.41;4980038;28;20034;-62
2021/01/02 04:31:20;;;;;;;19.20;10.38;;;;;;;3.04;78.70;100325.75;4980348;28;20037;-62
2021/01/02 04:33:46;;;;;;;17.08;10.13;;;;;;;3.05;78.96;100318.22;4979865;28;20035;-63
2021/01/02 04:36:21;;;;;;;20.63;9.40;;;;;;;3.02;78.37;100324.50;4979988;28;20437;-63
2021/01/02 04:38:46;;;;;;;18.15;9.77;;;;;;;3.01;79.14;100323.69;4980014;28;20031;-62
2021/01/02 04:41:14;;;;;;;13.63;8.90;;;;;;;3.07;79.16;100327.81;4979546;28;20429;-63
2021/01/02 04:43:50;;;;;;;20.00;10.25;;;;;;;3.05;79.03;100329.34;4980004;28;20393;-63
2021/01/02 04:46:16;;;;;;;22.30;10.68;;;;;;;3.07;78.67;100338.13;4979556;28;20407;-63
2021/01/02 04:48:44;;;;;;;21.75;12.38;;;;;;;3.07;78.91;100336.16;4979657;28;20046;-63
2021/01/02 04:51:10;;;;;;;18.52;9.85;;;;;;;3.11;78.36;100339.03;4979550;28;20059;-62
2021/01/02 04:53:36;;;;;;;13.30;8.70;;;;;;;3.14;78.37;100332.75;4979739;28;20536;-63
2021/01/02 04:56:04;;;;;;;15.43;8.50;;;;;;;3.12;78.69;100337.88;4979522;28;20121;-63
2021/01/02 04:58:47;;;;;;;16.50;8.77;;;;;;;3.19;78.20;100334.47;4979590;28;20433;-63
2021/01/02 05:01:14;;;;;;;16.35;9.15;;;;;;;3.18;78.44;100347.56;4979615;28;20038;-63
2021/01/02 05:03:44;;;;;;;14.15;8.45;;;;;;;3.25;77.76;100346.94;4978175;28;20403;-63
2021/01/02 05:06:10;;;;;;;15.05;8.88;;;;;;;3.25;77.68;100344.16;4979734;28;20019;-63
2021/01/02 05:08:35;;;;;;;13.88;8.75;;;;;;;3.28;77.78;100343.44;4979120;28;20022;-62
2021/01/02 05:11:03;;;;;;;14.52;8.18;;;;;;;3.26;77.71;100343.81;4979376;28;20347;-63
2021/01/02 05:13:30;;;;;;;17.13;8.38;;;;;;;3.18;77.76;100339.22;4979322;28;20023;-63
2021/01/02 05:16:13;;;;;;;14.05;8.05;;;;;;;3.17;77.47;100345.13;4979246;28;20019;-63
2021/01/02 05:18:51;;;;;;;13.68;7.75;;;;;;;3.12;77.89;100348.16;4978979;28;20015;-63
2021/01/02 05:21:16;;;;;;;13.68;8.60;;;;;;;3.15;78.07;100350.22;4979199;28;20038;-63
2021/01/02 05:24:02;;;;;;;13.15;8.18;;;;;;;3.11;77.85;100355.69;4978933;28;20346;-63
2021/01/02 05:26:28;;;;;;;14.63;8.73;;;;;;;3.07;77.63;100352.81;4978161;28;20054;-63
2021/01/02 05:29:12;;;;;;;24.85;13.25;;;;;;;3.02;77.75;100360.59;4978972;28;20101;-63
2021/01/02 05:31:39;;;;;;;21.00;11.38;;;;;;;2.96;78.42;100354.47;4978884;28;20034;-62
2021/01/02 05:34:06;;;;;;;23.17;11.85;;;;;;;2.89;78.53;100361.78;4978866;28;20038;-63
2021/01/02 05:36:31;;;;;;;23.83;13.27;;;;;;;2.83;78.41;100350.13;4979117;28;20022;-63
2021/01/02 05:38:58;;;;;;;25.40;13.00;;;;;;;2.78;78.57;100367.84;4978400;28;20038;-63
2021/01/02 05:41:23;;;;;;;26.60;13.05;;;;;;;2.75;79.15;100360.22;4979046;28;20034;-63
2021/01/02 05:43:49;;;;;;;28.88;15.07;;;;;;;2.73;79.36;100370.03;4978985;28;20045;-63
2021/01/02 05:46:17;;;;;;;17.77;9.45;;;;;;;2.75;79.21;100371.31;4978755;28;20428;-63
2021/01/02 05:48:42;;;;;;;17.90;10.65;;;;;;;2.77;78.75;100368.19;4978563;28;20030;-63
2021/01/02 05:51:12;;;;;;;23.83;13.85;;;;;;;2.76;79.33;100372.13;4977352;28;20450;-63
2021/01/02 05:53:37;;;;;;;18.85;10.90;;;;;;;2.69;78.84;100363.56;4978442;28;20023;-63
2021/01/02 05:56:08;;;;;;;16.45;9.27;;;;;;;2.63;79.29;100357.44;4977649;28;20031;-63
2021/01/02 05:58:45;;;;;;;16.63;9.32;;;;;;;2.62;79.66;100352.25;4978584;28;20110;-63
2021/01/02 06:01:17;;;;;;;16.52;9.30;;;;;;;2.62;79.51;100361.38;4977416;28;20031;-63
2021/01/02 06:03:52;;;;;;;14.23;8.55;;;;;;;2.61;79.50;100361.72;4977404;28;20138;-63
2021/01/02 06:06:18;;;;;;;14.45;8.40;;;;;;;2.58;79.20;100354.13;4978368;28;20027;-63
2021/01/02 06:08:48;;;;;;;13.80;8.68;;;;;;;2.56;79.43;100360.00;4978176;28;20041;-63
2021/01/02 06:11:24;;;;;;;16.65;9.02;;;;;;;2.56;79.55;100356.44;4978427;28;20202;-63
2021/01/02 06:13:51;;;;;;;20.40;9.73;;;;;;;2.53;79.39;100354.38;4978027;28;20030;-62
2021/01/02 06:16:17;;;;;;;13.82;8.38;;;;;;;2.52;79.63;100366.63;4978413;28;20027;-63
2021/01/02 06:18:45;;;;;;;13.65;7.93;;;;;;;2.50;79.37;100364.19;4976814;28;20047;-63
2021/01/02 06:21:16;;;;;;;16.35;8.48;;;;;;;2.49;79.53;100368.13;4978117;28;20019;-63
2021/01/02 06:23:44;;;;;;;15.02;8.35;;;;;;;2.53;79.40;100373.78;4977759;28;20034;-63
2021/01/02 06:26:11;;;;;;;15.32;7.85;;;;;;;2.53;79.59;100371.81;4978445;28;20022;-62
2021/01/02 06:28:39;;;;;;;13.20;8.00;;;;;;;2.52;79.15;100366.63;4977667;28;20027;-62
2021/01/02 06:31:09;;;;;;;13.18;8.30;;;;;;;2.53;79.17;100369.03;4978407;28;20030;-63
2021/01/02 06:33:42;;;;;;;12.70;8.18;;;;;;;2.51;79.34;100368.59;4977754;28;20022;-62
2021/01/02 06:36:28;;;;;;;17.40;8.82;;;;;;;2.48;79.39;100372.06;4977696;28;20470;-62
2021/01/02 06:39:28;;;;;;;23.75;11.93;;;;;;;2.53;79.20;100373.78;4977609;28;20426;-63
2021/01/02 06:41:56;;;;;;;29.60;12.18;;;;;;;2.52;79.14;100378.53;4918370;29;20077;-62
2021/01/02 06:44:44;;;;;;;21.77;11.18;;;;;;;2.53;79.60;100371.00;4965988;28;20038;-62
2021/01/02 06:47:21;;;;;;;14.82;9.50;;;;;;;2.51;79.23;100371.34;4977741;28;20034;-62
2021/01/02 06:49:47;;;;;;;13.43;8.80;;;;;;;2.51;79.79;100376.91;4977090;28;20037;-62
2021/01/02 06:52:34;;;;;;;12.27;7.95;;;;;;;2.59;79.67;100362.09;4977497;28;20027;-63
2021/01/02 06:55:21;;;;;;;17.30;9.45;;;;;;;2.68;79.44;100376.63;4976183;28;20054;-62
2021/01/02 06:57:47;;;;;;;15.70;10.18;;;;;;;2.67;79.08;100379.75;4977741;28;20027;-62
2021/01/02 07:00:20;;;;;;;16.38;9.70;;;;;;;2.71;78.93;100375.94;4977206;28;20027;-63
2021/01/02 07:02:46;;;;;;;15.65;8.40;;;;;;;2.78;79.31;100380.91;4977236;28;20038;-62
2021/01/02 07:05:31;;;;;;;13.52;7.10;;;;;;;2.83;79.17;100382.63;4977115;28;20027;-54
2021/01/02 07:07:56;;;;;;;12.43;7.38;;;;;;;2.91;79.33;100396.34;4977250;28;20034;-63
2021/01/02 07:10:22;;;;;;;15.02;8.60;;;;;;;3.02;78.72;100399.47;4977119;28;20019;-63
2021/01/02 07:12:47;;;;;;;13.80;8.25;;;;;;;3.06;78.08;100392.84;4977070;28;20478;-63
2021/01/02 07:15:13;;;;;;;15.48;9.13;;;;;;;3.17;78.04;100392.34;4977142;28;20318;-63
2021/01/02 07:17:38;;;;;;;18.42;10.30;;;;;;;3.20;78.32;100381.34;4977053;28;20165;-59
2021/01/02 07:20:05;;;;;;;14.45;8.65;;;;;;;3.29;78.09;100392.31;4976782;28;20414;-58
2021/01/02 07:22:30;;;;;;;14.32;8.48;;;;;;;3.41;77.48;100395.03;4977273;28;20018;-63
2021/01/02 07:25:08;;;;;;;18.17;9.90;;;;;;;3.42;77.17;100396.66;4976044;28;20026;-63
2021/01/02 07:27:36;;;;;;;13.55;8.77;;;;;;;3.44;76.90;100383.19;4977219;28;20029;-63
2021/01/02 07:30:10;;;;;;;15.77;9.32;;;;;;;3.46;77.50;100389.22;4976852;28;20042;-63
2021/01/02 07:32:44;;;;;;;22.50;13.30;;;;;;;3.47;77.25;100387.25;4977152;28;20411;-63
2021/01/02 07:35:12;;;;;;;23.05;12.80;;;;;;;3.49;77.08;100388.50;4976776;28;20050;-63
2021/01/02 07:37:39;;;;;;;22.85;13.35;;;;;;;3.50;77.17;100392.88;4975870;28;20019;-63
2021/01/02 07:40:07;;;;;;;22.00;13.48;;;;;;;3.48;77.47;100398.00;4976854;28;20077;-63
2021/01/02 07:42:40;;;;;;;17.58;10.38;;;;;;;3.56;77.18;100401.78;4976744;28;20026;-63
2021/01/02 07:45:13;;;;;;;17.92;9.85;;;;;;;3.58;77.47;100405.03;4976943;28;20110;-63
2021/01/02 07:47:59;;;;;;;12.02;7.05;;;;;;;3.71;77.37;100406.56;4976521;28;20031;-61
2021/01/02 07:50:27;;;;;;;16.73;7.15;;;;;;;3.87;76.61;100415.75;4976157;28;20350;-60
2021/01/02 07:52:54;;;;;;;12.93;7.32;;;;;;;3.98;76.94;100405.72;4976441;28;20035;-64
2021/01/02 07:55:33;;;;;;;13.80;8.68;;;;;;;4.09;76.42;100411.53;4976853;28;20418;-64
2021/01/02 07:58:00;;;;;;;19.30;10.65;;;;;;;4.20;75.74;100406.25;4976652;28;20093;-60
2021/01/02 08:00:25;;;;;;;19.98;10.82;;;;;;;4.30;76.13;100411.25;4977025;28;20022;-54
2021/01/02 08:02:51;;;;;;;20.35;10.90;;;;;;;4.43;75.35;100418.38;4976311;28;20080;-63
2021/01/02 08:05:21;;;;;;;14.45;8.50;;;;;;;4.50;75.46;100423.28;4976405;28;20030;-63
2021/01/02 08:07:53;;;;;;;15.50;9.05;;;;;;;4.53;75.20;100420.59;4976501;28;20030;-63
2021/01/02 08:10:19;;;;;;;24.00;9.07;;;;;;;4.59;75.21;100421.09;4976543;28;20054;-63
2021/01/02 08:12:46;;;;;;;16.65;9.35;;;;;;;4.60;74.69;100431.88;4975916;28;20081;-62
2021/01/02 08:15:14;;;;;;;14.38;9.00;;;;;;;4.63;75.37;100425.59;4976434;28;20496;-63
2021/01/02 08:17:41;;;;;;;16.20;8.77;;;;;;;4.67;74.92;100422.09;4975445;28;20100;-62
2021/01/02 08:20:07;;;;;;;13.68;8.68;;;;;;;4.68;75.01;100440.44;4976125;28;20473;-62
2021/01/02 08:22:37;;;;;;;17.30;8.63;;;;;;;4.69;75.01;100422.56;4976375;28;20030;-63
2021/01/02 08:25:10;;;;;;;17.88;9.13;;;;;;;4.69;75.09;100434.50;4976529;28;20037;-63
2021/01/02 08:27:36;;;;;;;15.43;9.10;;;;;;;4.73;75.26;100431.78;4972128;28;20431;-62
2021/01/02 08:30:09;;;;;;;17.65;10.82;;;;;;;4.77;75.08;100435.47;4976312;28;20027;-62
2021/01/02 08:32:50;;;;;;;19.38;10.25;;;;;;;4.83;74.99;100445.13;4975717;28;20042;-62
2021/01/02 08:35:17;;;;;;;20.10;11.60;;;;;;;4.89;74.33;100433.34;4976699;28;20038;-63
2021/01/02 08:37:43;;;;;;;17.05;10.43;;;;;;;4.91;75.16;100435.78;4971991;28;20026;-60
2021/01/02 08:40:11;;;;;;;18.15;12.45;;;;;;;4.96;75.25;100441.09;4974113;28;20057;-61
2021/01/02 08:42:41;;;;;;;22.85;11.63;;;;;;;5.11;74.29;100439.41;4975983;28;20050;-63
2021/01/02 08:45:08;;;;;;;26.60;13.80;;;;;;;5.23;74.76;100442.88;4976251;28;20042;-62
2021/01/02 08:47:35;;;;;;;13.80;8.98;;;;;;;5.36;73.80;100440.75;4975591;28;20034;-63
2021/01/02 08:50:12;;;;;;;15.10;8.95;;;;;;;5.43;73.65;100440.09;4975717;28;20058;-62
2021/01/02 08:52:38;;;;;;;19.40;9.25;;;;;;;5.46;73.63;100456.06;4976112;28;20326;-62
2021/01/02 08:55:13;;;;;;;16.17;8.55;;;;;;;5.53;73.13;100457.03;4976052;28;20106;-62
2021/01/02 08:57:43;;;;;;;13.98;8.02;;;;;;;5.62;73.33;100442.06;4976244;28;20023;-62
2021/01/02 09:00:29;;;;;;;21.55;9.95;;;;;;;5.68;73.83;100452.53;4976479;28;20035;-61
2021/01/02 09:02:54;;;;;;;18.20;10.10;;;;;;;5.86;73.51;100436.97;4978487;28;20035;-65
2021/01/02 09:05:36;;;;;;;17.17;10.05;;;;;;;6.05;72.22;100441.75;4979365;28;20031;-63
2021/01/02 09:08:04;;;;;;;20.00;10.38;;;;;;;6.17;71.43;100449.13;4979834;28;20033;-62
2021/01/02 09:10:44;;;;;;;18.50;10.48;;;;;;;6.33;72.00;100444.22;4979374;28;20419;-60
2021/01/02 09:13:19;;;;;;;23.17;12.63;;;;;;;6.56;71.61;100438.59;4979591;28;20042;-62
2021/01/02 09:16:01;;;;;;;28.13;13.95;;;;;;;6.81;71.93;100447.38;4978971;28;20030;-63
2021/01/02 09:18:30;;;;;;;16.27;9.52;;;;;;;7.08;69.44;100446.19;4979136;28;20317;-62
2021/01/02 09:20:56;;;;;;;18.15;8.90;;;;;;;7.32;69.49;100449.72;4978418;28;20023;-61
2021/01/02 09:23:35;;;;;;;13.73;7.82;;;;;;;7.50;67.71;100445.16;4970531;28;20066;-62
2021/01/02 09:26:04;;;;;;;15.32;8.15;;;;;;;7.52;68.49;100437.19;4966935;28;20343;-63
2021/01/02 09:28:42;;;;;;;13.77;7.93;;;;;;;7.66;67.69;100437.34;4969202;28;20031;-62
2021/01/02 09:31:08;;;;;;;12.80;8.00;;;;;;;7.74;67.67;100425.06;4971286;28;20103;-62
2021/01/02 09:33:33;;;;;;;16.63;9.30;;;;;;;7.88;65.79;100426.41;4972325;28;20038;-65
2021/01/02 09:35:58;;;;;;;17.83;11.52;;;;;;;7.89;65.68;100426.00;4973793;28;20027;-62
2021/01/02 09:38:24;;;;;;;22.95;12.45;;;;;;;7.93;65.75;100423.25;4974887;28;20035;-60
2021/01/02 09:40:50;;;;;;;14.13;8.18;;;;;;;7.96;65.81;100419.72;4972321;28;20085;-60
2021/01/02 09:43:16;;;;;;;15.35;7.90;;;;;;;8.04;65.50;100424.19;4971584;28;20319;-64
2021/01/02 09:45:42;;;;;;;17.77;7.50;;;;;;;8.12;67.46;100417.44;4966747;28;20030;-59
2021/01/02 09:48:10;;;;;;;12.18;7.90;;;;;;;8.26;66.00;100414.00;4966262;28;20493;-62
2021/01/02 09:50:36;;;;;;;15.95;7.70;;;;;;;8.30;64.85;100414.81;4970258;28;20081;-62
2021/01/02 09:53:03;;;;;;;12.75;7.45;;;;;;;8.11;62.74;100399.03;4975138;28;20150;-62
2021/01/02 09:55:28;;;;;;;13.77;8.38;;;;;;;7.93;65.03;100396.06;4972175;28;20102;-61
2021/01/02 09:57:54;;;;;;;13.70;8.57;;;;;;;7.86;66.10;100400.78;4976599;28;20050;-62
2021/01/02 10:00:20;;;;;;;12.48;7.50;;;;;;;7.80;65.39;100389.16;4976061;28;20026;-59
2021/01/02 10:02:46;;;;;;;14.55;8.05;;;;;;;7.82;64.83;100395.16;4972438;28;20525;-63
2021/01/02 10:05:19;;;;;;;14.10;8.27;;;;;;;7.87;65.44;100388.41;4974046;28;20113;-61
2021/01/02 10:07:45;;;;;;;19.48;11.25;;;;;;;7.95;65.15;100390.09;4974614;28;20022;-60
2021/01/02 10:10:12;;;;;;;18.92;9.30;;;;;;;8.00;65.39;100389.75;4977787;28;20019;-55
2021/01/02 10:12:39;;;;;;;15.65;8.02;;;;;;;8.10;65.51;100382.63;4960113;28;20304;-61
2021/01/02 10:15:06;;;;;;;16.13;8.20;;;;;;;8.17;65.40;100380.69;4959444;28;20030;-55
2021/01/02 10:17:31;;;;;;;14.30;7.15;;;;;;;8.23;64.31;100378.38;4975577;28;20031;-61
2021/01/02 10:19:58;;;;;;;12.80;8.60;;;;;;;8.22;64.52;100380.38;4972822;28;20027;-62
2021/01/02 10:22:23;;;;;;;23.25;10.82;;;;;;;8.30;66.22;100376.41;4977373;28;20026;-63
2021/01/02 10:24:52;;;;;;;12.75;7.32;;;;;;;8.35;65.04;100355.69;4977651;28;20296;-62
2021/01/02 10:27:18;;;;;;;15.77;10.07;;;;;;;8.42;65.89;100361.31;4973718;28;20023;-63
2021/01/02 10:29:48;;;;;;;17.20;8.88;;;;;;;8.50;64.36;100356.59;4969477;28;20465;-63
2021/01/02 10:32:14;;;;;;;12.73;8.05;;;;;;;8.53;64.13;100361.41;4974027;28;20414;-57
2021/01/02 10:34:41;;;;;;;15.35;8.00;;;;;;;8.59;64.57;100351.44;4974483;28;20027;-61
2021/01/02 10:37:07;;;;;;;14.82;7.60;;;;;;;8.67;64.11;100344.69;4970231;28;20027;-60
2021/01/02 10:39:36;;;;;;;15.65;8.63;;;;;;;8.70;62.74;100343.91;4971437;28;20425;-63
2021/01/02 10:42:01;;;;;;;16.65;8.43;;;;;;;8.71;63.06;100344.72;4973228;28;20035;-60
2021/01/02 10:44:27;;;;;;;21.02;8.57;;;;;;;8.69;64.27;100342.31;4976421;28;20444;-62
2021/01/02 10:46:53;;;;;;;16.33;7.32;;;;;;;8.64;63.69;100334.28;4977199;28;20077;-63
2021/01/02 10:49:21;;;;;;;13.07;7.22;;;;;;;8.73;63.71;100326.31;4977494;28;20411;-61
2021/01/02 10:51:47;;;;;;;16.95;9.40;;;;;;;8.76;63.98;100328.31;4976866;28;20050;-61
2021/01/02 10:54:15;;;;;;;15.55;8.32;;;;;;;8.82;64.43;100323.97;4977272;28;20038;-59
2021/01/02 10:56:51;;;;;;;17.83;7.85;;;;;;;8.93;63.94;100319.22;4976667;28;20085;-61
2021/01/02 10:59:18;;;;;;;11.27;7.07;;;;;;;9.03;62.89;100328.06;4977370;28;20026;-61
2021/01/02 11:01:46;;;;;;;14.68;7.05;;;;;;;9.09;63.38;100315.28;4977202;28;20023;-60
2021/01/02 11:04:12;;;;;;;12.20;6.53;;;;;;;9.24;62.75;100305.72;4977190;28;20346;-61
2021/01/02 11:06:39;;;;;;;16.85;7.30;;;;;;;9.31;63.20;100311.34;4977013;28;20061;-62
2021/01/02 11:09:06;;;;;;;17.38;7.20;;;;;;;9.37;61.39;100309.78;4973476;28;20047;-59
2021/01/02 11:11:32;;;;;;;11.60;6.85;;;;;;;9.43;61.79;100313.78;4969951;28;20038;-59
2021/01/02 11:13:57;;;;;;;17.55;7.22;;;;;;;9.52;61.54;100305.78;4974202;28;20097;-63
2021/01/02 11:16:31;;;;;;;13.77;7.47;;;;;;;9.66;61.60;100315.44;4973191;28;20027;-63
2021/01/02 11:18:56;;;;;;;13.52;7.25;;;;;;;9.67;62.49;100301.00;4976536;28;20038;-63
2021/01/02 11:21:21;;;;;;;12.68;6.65;;;;;;;9.78;61.00;100301.00;4977357;28;20027;-57
2021/01/02 11:23:47;;;;;;;13.60;8.30;;;;;;;9.86;61.46;100302.63;4975834;28;20103;-63
2021/01/02 11:26:12;;;;;;;10.85;6.47;;;;;;;9.98;60.78;100299.44;4976488;28;20097;-62
2021/01/02 11:28:37;;;;;;;13.40;7.03;;;;;;;10.12;61.53;100293.78;4976646;28;20050;-56
2021/01/02 11:31:03;;;;;;;10.18;6.65;;;;;;;10.27;61.17;100294.63;4976724;28;20045;-60
2021/01/02 11:33:29;;;;;;;13.40;6.45;;;;;;;10.33;60.85;100281.78;4976851;28;20076;-62
2021/01/02 11:35:54;;;;;;;13.25;7.57;;;;;;;10.35;59.90;100273.75;4976631;28;20437;-58